createdAt,value
2022-11-29T00:01:36.243Z,14.63
2022-11-29T00:04:06.606Z,12.60
2022-11-29T00:06:35.389Z,14.30
2022-11-29T00:09:07.323Z,13.45
2022-11-29T00:11:54.895Z,12.38
2022-11-29T00:14:23.382Z,13.65
2022-11-29T00:16:54.120Z,11.77
2022-11-29T00:19:22.556Z,15.20
2022-11-29T00:21:51.048Z,12.30
2022-11-29T00:24:19.537Z,12.85
2022-11-29T00:26:48.145Z,11.05
2022-11-29T00:29:16.570Z,11.60
2022-11-29T00:31:45.291Z,13.30
2022-11-29T00:34:15.027Z,13.70
2022-11-29T00:36:43.474Z,12.88
2022-11-29T00:39:16.400Z,13.10
2022-11-29T00:41:44.968Z,12.43
2022-11-29T00:44:19.655Z,14.85
2022-11-29T00:46:49.054Z,12.27
2022-11-29T00:49:18.861Z,12.18
2022-11-29T00:51:47.242Z,14.57
2022-11-29T00:54:15.584Z,12.20
2022-11-29T00:56:44.183Z,13.15
2022-11-29T00:59:12.546Z,10.82
2022-11-29T01:01:40.965Z,13.40
2022-11-29T01:04:09.556Z,13.30
2022-11-29T01:06:39.265Z,12.82
2022-11-29T01:09:07.718Z,11.88
2022-11-29T01:11:36.337Z,12.80
2022-11-29T01:14:04.862Z,13.63
2022-11-29T01:16:33.246Z,11.70
2022-11-29T01:19:01.914Z,12.20
2022-11-29T01:21:30.413Z,11.63
2022-11-29T01:24:01.104Z,14.73
2022-11-29T01:29:35.653Z,12.55
2022-11-29T01:32:04.274Z,12.40
2022-11-29T01:34:32.903Z,16.13
2022-11-29T01:37:19.898Z,12.00
2022-11-29T01:39:49.808Z,14.70
2022-11-29T01:42:18.154Z,12.73
2022-11-29T01:45:08.316Z,14.63
2022-11-29T01:47:37.771Z,12.70
2022-11-29T01:50:07.793Z,12.57
2022-11-29T01:52:36.093Z,12.18
2022-11-29T01:58:14.429Z,12.70
2022-11-29T01:58:19.640Z,12.32
2022-11-29T02:00:42.943Z,10.98
2022-11-29T02:03:12.899Z,15.52
2022-11-29T02:05:43.260Z,15.10
2022-11-29T02:08:12.676Z,11.65
2022-11-29T02:10:59.549Z,11.98
2022-11-29T02:13:33.399Z,12.88
2022-11-29T02:16:05.707Z,11.07
2022-11-29T02:18:47.331Z,12.73
2022-11-29T02:21:37.821Z,13.20
2022-11-29T02:24:52.544Z,13.25
2022-11-29T02:28:04.682Z,11.50
2022-11-29T02:31:05.545Z,11.98
2022-11-29T02:34:01.258Z,13.18
2022-11-29T02:36:52.475Z,13.07
2022-11-29T02:39:40.691Z,12.30
2022-11-29T02:42:56.139Z,12.80
2022-11-29T02:45:45.854Z,12.80
2022-11-29T02:48:30.374Z,16.50
2022-11-29T02:51:03.877Z,15.77
2022-11-29T02:53:36.830Z,14.98
2022-11-29T02:56:12.053Z,12.43
2022-11-29T02:58:50.405Z,15.63
2022-11-29T03:01:22.276Z,13.57
2022-11-29T03:03:54.798Z,16.70
2022-11-29T03:06:32.741Z,12.65
2022-11-29T03:09:07.192Z,14.60
2022-11-29T03:11:40.438Z,12.40
2022-11-29T03:14:16.216Z,13.48
2022-11-29T03:16:48.602Z,14.02
2022-11-29T03:19:35.028Z,12.93
2022-11-29T03:22:12.344Z,11.93
2022-11-29T03:24:46.553Z,14.90
2022-11-29T03:27:18.564Z,12.73
2022-11-29T03:29:49.371Z,12.95
2022-11-29T03:32:21.093Z,14.68
2022-11-29T03:34:57.780Z,12.52
2022-11-29T03:37:31.018Z,11.85
2022-11-29T03:40:06.263Z,12.23
2022-11-29T03:42:38.692Z,11.35
2022-11-29T03:45:12.209Z,12.68
2022-11-29T03:47:43.932Z,13.80
2022-11-29T03:50:15.241Z,13.05
2022-11-29T03:52:49.866Z,12.50
2022-11-29T03:55:34.694Z,11.57
2022-11-29T03:58:13.833Z,12.98
2022-11-29T04:01:06.645Z,14.32
2022-11-29T04:04:00.160Z,13.57
2022-11-29T04:06:40.530Z,11.88
2022-11-29T04:09:43.723Z,14.05
2022-11-29T04:12:45.326Z,14.13
2022-11-29T04:15:59.620Z,13.07
2022-11-29T04:19:05.108Z,15.55
2022-11-29T04:22:05.987Z,11.50
2022-11-29T04:25:15.255Z,14.90
2022-11-29T04:28:07.914Z,13.98
2022-11-29T04:30:40.183Z,10.95
2022-11-29T04:33:51.746Z,13.23
2022-11-29T04:36:41.293Z,13.80
2022-11-29T04:39:38.685Z,12.25
2022-11-29T04:42:45.217Z,13.32
2022-11-29T04:45:47.420Z,14.73
2022-11-29T04:48:27.870Z,11.32
2022-11-29T04:51:02.962Z,14.15
2022-11-29T04:53:48.968Z,11.85
2022-11-29T04:56:24.847Z,12.88
2022-11-29T04:59:02.503Z,11.95
2022-11-29T05:01:39.938Z,14.20
2022-11-29T05:04:14.788Z,13.25
2022-11-29T05:06:49.817Z,12.88
2022-11-29T05:09:24.536Z,13.00
2022-11-29T05:12:01.161Z,14.90
2022-11-29T05:14:41.945Z,11.82
2022-11-29T05:17:26.642Z,13.80
2022-11-29T05:20:04.243Z,13.15
2022-11-29T05:22:37.217Z,14.38
2022-11-29T05:25:38.985Z,13.32
2022-11-29T05:28:11.816Z,15.52
2022-11-29T05:31:01.890Z,12.90
2022-11-29T05:33:44.186Z,14.90
2022-11-29T05:36:16.134Z,14.80
2022-11-29T05:38:58.859Z,13.40
2022-11-29T05:41:49.332Z,12.60
2022-11-29T05:44:20.920Z,14.18
2022-11-29T05:46:56.433Z,15.02
2022-11-29T05:49:33.719Z,13.18
2022-11-29T05:52:30.563Z,13.77
2022-11-29T05:55:11.714Z,14.05
2022-11-29T05:57:44.814Z,14.48
2022-11-29T06:00:16.956Z,12.10
2022-11-29T06:02:55.479Z,15.07
2022-11-29T06:05:29.970Z,13.30
2022-11-29T06:08:04.060Z,13.63
2022-11-29T06:10:33.875Z,13.55
2022-11-29T06:13:12.104Z,13.63
2022-11-29T06:16:35.282Z,13.32
2022-11-29T06:19:56.171Z,13.38
2022-11-29T06:22:47.552Z,13.00
2022-11-29T06:25:34.027Z,13.25
2022-11-29T06:28:22.714Z,12.82
2022-11-29T06:31:00.733Z,14.13
2022-11-29T06:33:35.569Z,13.65
2022-11-29T06:36:16.175Z,13.77
2022-11-29T06:38:45.949Z,13.15
2022-11-29T06:41:19.283Z,12.13
2022-11-29T06:43:48.573Z,14.68
2022-11-29T06:46:36.980Z,14.25
2022-11-29T06:49:11.234Z,14.20
2022-11-29T06:51:49.240Z,15.90
2022-11-29T06:54:29.703Z,14.45
2022-11-29T06:57:03.389Z,15.73
2022-11-29T06:59:42.036Z,18.20
2022-11-29T07:02:25.876Z,15.57
2022-11-29T07:05:04.008Z,14.85
2022-11-29T07:07:34.204Z,16.05
2022-11-29T07:10:03.422Z,16.02
2022-11-29T07:12:32.571Z,13.73
2022-11-29T07:15:02.091Z,16.35
2022-11-29T07:17:34.787Z,16.65
2022-11-29T07:20:10.072Z,14.65
2022-11-29T07:22:52.202Z,15.27
2022-11-29T07:25:29.431Z,23.40
2022-11-29T07:28:04.983Z,21.23
2022-11-29T07:30:38.647Z,33.88
2022-11-29T07:33:12.415Z,36.67
2022-11-29T07:35:45.382Z,36.80
2022-11-29T07:38:20.219Z,34.65
2022-11-29T07:40:53.504Z,34.70
2022-11-29T07:43:33.009Z,39.75
2022-11-29T07:46:01.547Z,33.55
2022-11-29T07:48:29.932Z,32.63
2022-11-29T07:50:58.433Z,34.20
2022-11-29T07:53:29.044Z,30.67
2022-11-29T07:55:57.395Z,28.98
2022-11-29T07:58:26.315Z,28.08
2022-11-29T08:00:54.869Z,31.58
2022-11-29T08:03:23.333Z,22.77
2022-11-29T08:05:51.795Z,22.60
2022-11-29T08:08:20.353Z,19.23
2022-11-29T08:10:50.359Z,22.23
2022-11-29T08:13:20.584Z,25.05
2022-11-29T08:15:49.341Z,24.85
2022-11-29T08:18:17.853Z,18.23
2022-11-29T08:20:46.454Z,24.42
2022-11-29T08:23:15.347Z,22.00
2022-11-29T08:25:43.731Z,22.30
2022-11-29T08:28:13.521Z,21.00
2022-11-29T08:30:41.944Z,21.67
2022-11-29T08:33:10.280Z,24.55
2022-11-29T08:35:40.080Z,24.45
2022-11-29T08:38:08.461Z,32.45
2022-11-29T08:40:37.064Z,28.75
2022-11-29T08:43:05.564Z,31.73
2022-11-29T08:45:35.390Z,45.30
2022-11-29T08:48:03.758Z,58.08
2022-11-29T08:50:32.368Z,57.65
2022-11-29T08:53:18.193Z,63.35
2022-11-29T08:55:47.025Z,46.45
2022-11-29T08:58:16.218Z,52.58
2022-11-29T09:00:47.264Z,50.28
2022-11-29T09:03:33.717Z,44.25
2022-11-29T09:06:11.958Z,51.50
2022-11-29T09:08:43.566Z,39.17
2022-11-29T09:11:13.623Z,40.13
2022-11-29T09:13:42.535Z,42.88
2022-11-29T09:16:15.350Z,41.08
2022-11-29T09:18:48.550Z,40.67
2022-11-29T09:21:19.741Z,44.58
2022-11-29T09:23:48.297Z,36.55
2022-11-29T09:26:18.503Z,40.55
2022-11-29T09:28:47.413Z,42.80
2022-11-29T09:31:17.680Z,32.33
2022-11-29T09:33:46.661Z,37.67
2022-11-29T09:36:15.285Z,34.28
2022-11-29T09:38:43.915Z,39.60
2022-11-29T09:41:31.372Z,37.65
2022-11-29T09:44:04.950Z,40.65
2022-11-29T09:46:40.710Z,36.35
2022-11-29T09:49:36.090Z,38.25
2022-11-29T09:52:07.115Z,30.75
2022-11-29T09:54:39.849Z,34.22
2022-11-29T09:57:10.779Z,34.22
2022-11-29T09:59:42.847Z,32.83
2022-11-29T10:02:21.389Z,37.75
2022-11-29T10:04:53.481Z,35.25
2022-11-29T10:07:23.735Z,35.70
2022-11-29T10:09:54.667Z,31.30
2022-11-29T10:12:28.006Z,32.17
2022-11-29T10:14:59.018Z,30.17
2022-11-29T10:17:34.452Z,32.63
2022-11-29T10:20:07.865Z,36.42
2022-11-29T10:22:42.146Z,32.10
2022-11-29T10:25:11.643Z,27.80
2022-11-29T10:27:41.404Z,29.42
2022-11-29T10:30:17.864Z,25.10
2022-11-29T10:32:49.698Z,28.95
2022-11-29T10:35:19.967Z,30.75
2022-11-29T10:38:07.639Z,27.25
2022-11-29T10:40:36.949Z,31.52
2022-11-29T10:43:05.483Z,31.58
2022-11-29T10:45:35.442Z,34.63
2022-11-29T10:48:07.536Z,31.60
2022-11-29T10:50:37.208Z,33.33
2022-11-29T10:53:08.100Z,34.47
2022-11-29T10:55:42.970Z,33.95
2022-11-29T10:58:27.984Z,37.50
2022-11-29T11:00:58.489Z,34.53
2022-11-29T11:03:39.393Z,35.20
2022-11-29T11:06:12.075Z,30.55
2022-11-29T11:08:43.014Z,37.97
2022-11-29T11:11:11.572Z,35.45
2022-11-29T11:13:41.129Z,33.53
2022-11-29T11:16:15.414Z,33.72
2022-11-29T11:18:45.601Z,38.72
2022-11-29T11:21:14.996Z,32.08
2022-11-29T11:23:52.297Z,36.80
2022-11-29T11:26:20.734Z,31.92
2022-11-29T11:28:52.924Z,35.50
2022-11-29T11:31:29.520Z,32.08
2022-11-29T11:34:00.578Z,29.60
2022-11-29T11:36:28.991Z,27.75
2022-11-29T11:38:58.982Z,28.80
2022-11-29T11:41:45.455Z,35.22
2022-11-29T11:44:53.642Z,30.95
2022-11-29T11:47:24.398Z,28.67
2022-11-29T11:49:56.600Z,30.55
2022-11-29T11:52:27.025Z,26.55
2022-11-29T11:54:58.445Z,27.95
2022-11-29T11:57:26.922Z,23.27
2022-11-29T12:00:01.992Z,28.98
2022-11-29T12:02:38.795Z,26.40
2022-11-29T12:05:14.654Z,29.00
2022-11-29T12:08:07.365Z,25.88
2022-11-29T12:10:35.101Z,28.80
2022-11-29T12:13:03.594Z,28.42
2022-11-29T12:15:33.737Z,34.97
2022-11-29T12:18:04.671Z,34.33
2022-11-29T12:20:38.166Z,29.10
2022-11-29T12:23:22.922Z,24.77
2022-11-29T12:25:53.755Z,27.92
2022-11-29T12:28:29.607Z,32.15
2022-11-29T12:31:04.652Z,28.90
2022-11-29T12:33:39.148Z,27.92
2022-11-29T12:36:28.366Z,28.20
2022-11-29T12:39:20.337Z,25.50
2022-11-29T12:41:54.383Z,29.05
2022-11-29T12:44:33.616Z,29.63
2022-11-29T12:47:34.615Z,31.40
2022-11-29T12:50:05.122Z,25.48
2022-11-29T12:52:40.363Z,28.75
2022-11-29T12:55:11.530Z,28.20
2022-11-29T12:57:43.836Z,29.10
2022-11-29T13:00:17.021Z,28.50
2022-11-29T13:02:57.412Z,27.83
2022-11-29T13:05:40.377Z,26.48
2022-11-29T13:08:23.548Z,27.85
2022-11-29T13:11:03.066Z,29.52
2022-11-29T13:13:39.068Z,26.83
2022-11-29T13:16:14.675Z,26.50
2022-11-29T13:18:51.814Z,25.55
2022-11-29T13:21:23.749Z,26.02
2022-11-29T13:24:11.938Z,24.20
2022-11-29T13:26:40.529Z,25.95
2022-11-29T13:29:12.680Z,23.08
2022-11-29T13:31:41.123Z,27.83
2022-11-29T13:34:12.056Z,27.02
2022-11-29T13:36:49.340Z,28.83
2022-11-29T13:39:31.737Z,27.90
2022-11-29T13:42:06.080Z,27.30
2022-11-29T13:44:38.254Z,31.50
2022-11-29T13:47:08.945Z,34.33
2022-11-29T13:49:57.073Z,31.35
2022-11-29T13:52:38.576Z,44.58
2022-11-29T13:55:28.835Z,31.98
2022-11-29T13:58:16.913Z,33.15
2022-11-29T14:00:51.352Z,27.98
2022-11-29T14:03:33.099Z,28.52
2022-11-29T14:06:10.308Z,26.83
2022-11-29T14:09:10.767Z,26.92
2022-11-29T14:11:32.979Z,24.25
2022-11-29T14:14:07.473Z,28.33
2022-11-29T14:16:39.084Z,25.52
2022-11-29T14:19:22.045Z,27.25
2022-11-29T14:22:31.613Z,25.15
2022-11-29T14:25:21.701Z,25.13
2022-11-29T14:28:02.482Z,25.85
2022-11-29T14:30:48.779Z,24.83
2022-11-29T14:33:43.925Z,22.98
2022-11-29T14:36:42.402Z,23.05
2022-11-29T14:39:31.478Z,23.85
2022-11-29T14:42:14.565Z,29.42
2022-11-29T14:44:51.243Z,27.75
2022-11-29T14:47:30.017Z,38.75
2022-11-29T14:49:59.490Z,39.03
2022-11-29T14:52:33.750Z,41.08
2022-11-29T14:55:11.298Z,30.30
2022-11-29T14:58:06.273Z,34.58
2022-11-29T15:00:52.726Z,29.33
2022-11-29T15:03:23.008Z,29.33
2022-11-29T15:05:57.989Z,27.80
2022-11-29T15:08:35.540Z,27.25
2022-11-29T15:11:06.040Z,31.38
2022-11-29T15:13:36.675Z,28.50
2022-11-29T15:16:23.435Z,27.52
2022-11-29T15:19:39.405Z,28.23
2022-11-29T15:22:11.855Z,27.27
2022-11-29T15:24:52.862Z,27.10
2022-11-29T15:27:21.560Z,23.10
2022-11-29T15:29:50.609Z,25.52
2022-11-29T15:32:26.514Z,20.85
2022-11-29T15:34:55.766Z,21.95
2022-11-29T15:37:26.486Z,24.20
2022-11-29T15:40:05.210Z,26.25
2022-11-29T15:42:41.706Z,27.02
2022-11-29T15:45:32.665Z,21.55
2022-11-29T15:48:18.735Z,25.08
2022-11-29T15:50:55.691Z,73.30
2022-11-29T15:53:27.153Z,61.08
2022-11-29T15:55:57.697Z,26.70
2022-11-29T15:58:27.818Z,39.00
2022-11-29T16:00:57.094Z,58.38
2022-11-29T16:03:30.614Z,63.70
2022-11-29T16:06:06.679Z,60.47
2022-11-29T16:08:39.109Z,58.83
2022-11-29T16:11:07.801Z,49.90
2022-11-29T16:13:38.796Z,49.00
2022-11-29T16:16:18.393Z,63.05
2022-11-29T16:18:49.163Z,63.67
2022-11-29T16:21:26.057Z,57.92
2022-11-29T16:23:54.735Z,57.33
2022-11-29T16:26:24.466Z,74.68
2022-11-29T16:28:53.820Z,77.75
2022-11-29T16:31:23.444Z,90.13
2022-11-29T16:33:53.759Z,117.28
2022-11-29T16:36:23.577Z,125.22
2022-11-29T16:38:53.518Z,110.05
2022-11-29T16:41:32.445Z,113.47
2022-11-29T16:44:03.309Z,114.28
2022-11-29T16:46:37.378Z,145.80
2022-11-29T16:49:34.662Z,119.60
2022-11-29T16:52:03.665Z,145.98
2022-11-29T16:54:34.325Z,130.48
2022-11-29T16:57:05.475Z,134.43
2022-11-29T16:59:35.379Z,173.50
2022-11-29T17:02:03.990Z,148.48
2022-11-29T17:04:33.859Z,138.32
2022-11-29T17:07:02.305Z,159.68
2022-11-29T17:09:33.173Z,127.03
2022-11-29T17:12:03.058Z,149.90
2022-11-29T17:14:31.707Z,183.05
2022-11-29T17:17:03.053Z,180.65
2022-11-29T17:19:33.050Z,161.73
2022-11-29T17:22:01.462Z,166.82
2022-11-29T17:24:29.905Z,164.27
2022-11-29T17:26:58.549Z,156.27
2022-11-29T17:29:27.092Z,158.55
2022-11-29T17:31:55.645Z,157.43
2022-11-29T17:34:24.347Z,147.88
2022-11-29T17:36:54.348Z,138.32
2022-11-29T17:39:23.028Z,147.32
2022-11-29T17:41:51.523Z,145.48
2022-11-29T17:44:19.927Z,140.38
2022-11-29T17:46:48.442Z,123.07
2022-11-29T17:49:18.749Z,128.90
2022-11-29T17:51:52.392Z,130.77
2022-11-29T17:54:25.791Z,127.82
2022-11-29T17:56:54.283Z,113.07
2022-11-29T17:59:22.817Z,123.55
2022-11-29T18:01:51.357Z,116.35
2022-11-29T18:04:19.986Z,115.15
2022-11-29T18:06:50.361Z,108.40
2022-11-29T18:09:19.698Z,107.60
2022-11-29T18:11:50.510Z,108.70
2022-11-29T18:14:21.167Z,111.90
2022-11-29T18:16:49.601Z,106.50
2022-11-29T18:19:20.211Z,108.53
2022-11-29T18:21:49.067Z,107.72
2022-11-29T18:24:17.664Z,101.30
2022-11-29T18:26:46.302Z,98.63
2022-11-29T18:29:16.380Z,97.07
2022-11-29T18:31:46.153Z,92.28
2022-11-29T18:34:15.056Z,97.45
2022-11-29T18:36:44.858Z,93.65
2022-11-29T18:39:15.119Z,98.55
2022-11-29T18:41:44.281Z,87.72
2022-11-29T18:44:15.917Z,98.70
2022-11-29T18:46:44.996Z,92.70
2022-11-29T18:49:14.337Z,83.88
2022-11-29T18:51:44.959Z,80.25
2022-11-29T18:54:14.209Z,79.22
2022-11-29T18:56:42.858Z,84.00
2022-11-29T18:59:13.705Z,82.40
2022-11-29T19:01:44.042Z,88.25
2022-11-29T19:04:13.474Z,86.10
2022-11-29T19:06:42.680Z,88.28
2022-11-29T19:09:14.209Z,90.00
2022-11-29T19:11:42.754Z,84.72
2022-11-29T19:14:12.877Z,81.28
2022-11-29T19:16:44.160Z,72.07
2022-11-29T19:19:13.036Z,78.78
2022-11-29T19:21:41.656Z,84.22
2022-11-29T19:24:15.141Z,78.75
2022-11-29T19:26:45.511Z,82.38
2022-11-29T19:29:14.417Z,80.22
2022-11-29T19:31:44.308Z,77.03
2022-11-29T19:34:12.857Z,79.85
2022-11-29T19:36:43.658Z,72.43
2022-11-29T19:39:13.155Z,73.75
2022-11-29T19:41:42.552Z,66.93
2022-11-29T19:44:11.194Z,70.82
2022-11-29T19:46:41.468Z,69.85
2022-11-29T19:49:11.461Z,61.20
2022-11-29T19:51:40.043Z,62.40
2022-11-29T19:54:09.735Z,61.28
2022-11-29T19:56:38.954Z,68.40
2022-11-29T19:59:08.312Z,64.68
2022-11-29T20:01:41.986Z,62.88
2022-11-29T20:04:13.961Z,62.42
2022-11-29T20:06:43.178Z,57.42
2022-11-29T20:09:12.281Z,58.25
2022-11-29T20:11:40.970Z,65.45
2022-11-29T20:14:09.974Z,65.38
2022-11-29T20:16:39.274Z,57.70
2022-11-29T20:19:13.587Z,57.83
2022-11-29T20:21:44.063Z,58.85
2022-11-29T20:24:14.561Z,54.47
2022-11-29T20:26:44.836Z,57.08
2022-11-29T20:29:13.420Z,51.90
2022-11-29T20:31:49.115Z,52.25
2022-11-29T20:34:21.168Z,55.63
2022-11-29T20:37:11.845Z,51.78
2022-11-29T20:39:45.123Z,54.50
2022-11-29T20:42:41.490Z,51.38
2022-11-29T20:45:12.174Z,53.28
2022-11-29T20:47:46.270Z,49.88
2022-11-29T20:50:23.138Z,51.20
2022-11-29T20:53:01.851Z,56.67
2022-11-29T20:55:30.623Z,51.60
2022-11-29T20:57:59.058Z,66.03
2022-11-29T21:00:27.631Z,68.10
2022-11-29T21:02:56.125Z,59.15
2022-11-29T21:05:25.855Z,67.32
2022-11-29T21:07:54.380Z,65.80
2022-11-29T21:10:23.396Z,53.72
2022-11-29T21:12:52.547Z,59.03
2022-11-29T21:15:22.205Z,55.55
2022-11-29T21:17:51.300Z,58.28
2022-11-29T21:20:22.528Z,48.67
2022-11-29T21:22:56.956Z,55.50
2022-11-29T21:25:36.213Z,47.35
2022-11-29T21:28:05.463Z,50.42
2022-11-29T21:30:34.571Z,54.08
2022-11-29T21:33:03.634Z,54.42
2022-11-29T21:35:32.296Z,49.08
2022-11-29T21:38:02.588Z,46.58
2022-11-29T21:40:31.018Z,45.60
2022-11-29T21:43:08.125Z,47.00
2022-11-29T21:45:36.774Z,47.92
2022-11-29T21:48:25.710Z,48.80
2022-11-29T21:50:54.146Z,45.58
2022-11-29T21:53:23.998Z,45.58
2022-11-29T21:55:58.218Z,46.55
2022-11-29T21:58:26.798Z,43.80
2022-11-29T22:00:55.314Z,47.85
2022-11-29T22:03:23.802Z,42.83
2022-11-29T22:05:52.384Z,37.80
2022-11-29T22:08:20.780Z,45.90
2022-11-29T22:10:50.662Z,43.78
2022-11-29T22:13:19.277Z,45.70
2022-11-29T22:15:47.733Z,42.13
2022-11-29T22:18:16.125Z,41.65
2022-11-29T22:20:47.266Z,44.97
2022-11-29T22:23:15.704Z,40.10
2022-11-29T22:25:44.168Z,40.83
2022-11-29T22:28:14.072Z,41.00
2022-11-29T22:30:42.563Z,42.45
2022-11-29T22:33:13.426Z,39.70
2022-11-29T22:35:44.708Z,44.45
2022-11-29T22:38:13.103Z,37.08
2022-11-29T22:41:02.397Z,41.78
2022-11-29T22:43:34.857Z,38.58
2022-11-29T22:46:07.643Z,39.75
2022-11-29T22:48:39.332Z,39.72
2022-11-29T22:51:09.035Z,36.85
2022-11-29T22:53:37.905Z,35.88
2022-11-29T22:56:08.582Z,35.00
2022-11-29T22:58:38.446Z,40.65
2022-11-29T23:01:08.462Z,34.78
2022-11-29T23:03:37.251Z,36.00
2022-11-29T23:06:07.305Z,34.53
2022-11-29T23:08:35.945Z,34.05
2022-11-29T23:11:05.312Z,33.58
2022-11-29T23:13:34.201Z,32.88
2022-11-29T23:16:04.273Z,32.78
2022-11-29T23:18:33.156Z,34.03
2022-11-29T23:21:03.055Z,36.47
2022-11-29T23:23:31.603Z,30.17
2022-11-29T23:26:00.322Z,34.17
2022-11-29T23:28:28.921Z,31.17
2022-11-29T23:30:57.308Z,33.40
2022-11-29T23:33:27.615Z,28.75
2022-11-29T23:36:00.987Z,31.05
2022-11-29T23:38:29.612Z,31.95
2022-11-29T23:40:58.043Z,31.63
2022-11-29T23:43:26.608Z,31.00
2022-11-29T23:45:55.059Z,32.30
2022-11-29T23:48:23.526Z,27.85
2022-11-29T23:50:53.328Z,27.45
2022-11-29T23:53:21.725Z,31.27
2022-11-29T23:55:58.167Z,28.48
2022-11-29T23:58:28.883Z,29.95
